Smiths Park, South Dakota
Current Conditions -  °F | °C
As of 3:10 AM on Monday 22 Dec 2014 (Local Time) from KMDS Reporting Station
Light Rain Light Rain  
Wind Chill: 27°   Ceiling: 200
Heat Index: 36°   Visibility: 4mi
Dew Point: 36°   Wind: 13mph
Humidity: 100%   Direction: 170°S
Pressure: 29.48"   Gusts: NA
Location:  43.9868°N, 96.9457°W
Report Text: KMDS 220910Z AUTO 17011KT 4SM -RA OVC002 02/02 A2948 RMK AO2
Loading
Personal Weather Stations






























Interactive Weather Map New forecast layout! Learn more

10-Day Weather Forecast

Advertisements
Track Severe Weather on mobile